METAR AND TAF INFORMATION
METAR FOR LJLJ
ADDS - METARS form results

(1634 UTC 05 April 2020)
Data provider http://aviationweather.gov/metar/data/
 
METAR text: LJLJ 051630Z 08011KT CAVOK 15/M02 Q1024 NOSIG
Conditions at: LJLJ (LJUBLJANA/BRNIK , SI) observed 1630 UTC 05 April 2020
Temperature: 15.0°C (59°F)
Dewpoint: -2.0°C (28°F) [RH = 31%]
Pressure (altimeter): 30.24 inches Hg (1024.0 mb)
Winds: from the E (80 degrees) at 13 MPH (11 knots; 5.7 m/s)
Visibility: 6 or more miles (10+ km)
Ceiling: ceiling and visibility are OK
Clouds: unknown
Weather: no significant weather observed at this time

METAR text: LJLJ 051600Z 08011KT 050V110 9999 FEW070 16/M01 Q1024 NOSIG
Conditions at: LJLJ (LJUBLJANA/BRNIK , SI) observed 1600 UTC 05 April 2020
Temperature: 16.0°C (61°F)
Dewpoint: -1.0°C (30°F) [RH = 31%]
Pressure (altimeter): 30.24 inches Hg (1024.0 mb)
Winds: from the E (80 degrees) at 13 MPH (11 knots; 5.7 m/s)
Visibility: 6 or more miles (10+ km)
Ceiling: at least 12,000 feet AGL
Clouds: few clouds at 7000 feet AGL
Weather: no significant weather observed at this time

Forecast for: LJLJ (LJUBLJANA/BRNIK , SI)
Text: TAF LJLJ 051100Z 0512/0612 12015KT CAVOK
Forecast period: 1200 to 1700 UTC 05 April 2020
Forecast type: FROM: standard forecast or significant change
Winds: from the ESE (120 degrees) at 17 MPH (15 knots; 7.7 m/s)
Visibility: 6 or more miles 10+ km)
Ceiling: unknown
Clouds: missing
Weather: NSW  (no significant weather)
Text: BECMG 0517/0520 10005KT
Forecast period: 1700 UTC 05 April 2020 to 1200 UTC 06 April 2020
Forecast type: BECOMING: Conditions expected to become as follows by 2000 UTC 05 April 2020
Winds: from the E (100 degrees) at 6 MPH (5 knots; 2.6 m/s)
Visibility: 6 or more miles 10+ km)
Ceiling: unknown
Clouds: missing
Weather: NSW  (no significant weather)

 AIRPORT MAP

 RUNWAY INFORMATION
Runway 13 Runway length 10827 ft Runway width 148 ft
Runway elevation 1273 ft Runway displaced threshold 0 ft Runway heading 126
Runway 31 Runway length 10827 ft Runway width 148 ft
Runway elevation 1191 ft Runway displaced threshold 0 ft Runway heading 306

 AIRPORT FREQUENCIES
Type A/D Name APP Frequency 135.275 MHZ
Type ATIS Name also on VO Frequency 128.175 MHZ
Type GND Name Frequency 121.625 MHZ
Type HANDLING & Name Frequency 131.4 MHZ
Type TWR Name TWR Frequency 118 MHZ

 AIRPORT NEAR NAVIGATION AIDS
Type VOR-DME Name Dolsko Frequency 112700 KHZ
Type NDB Name Dolsko Frequency 328 KHZ
Type NDB Name Ljubljana Frequency 296 KHZ



Powered by Virtual Airlines Manager [v2.6.2]

Impressum | Datenschutz